createdAt,value
2019-05-20T00:04:37.722Z,20.48
2019-05-20T00:09:42.573Z,23.52
2019-05-20T00:14:47.488Z,20.95
2019-05-20T00:19:52.203Z,22.75
2019-05-20T00:24:57.141Z,22.40
2019-05-20T00:30:01.993Z,24.92
2019-05-20T00:35:08.215Z,24.10
2019-05-20T00:40:13.493Z,24.03
2019-05-20T00:45:18.474Z,22.33
2019-05-20T00:50:29.416Z,24.57
2019-05-20T00:55:45.875Z,23.25
2019-05-20T01:00:50.801Z,20.57
2019-05-20T01:05:55.827Z,23.22
2019-05-20T01:11:01.693Z,22.65
2019-05-20T01:16:06.520Z,21.77
2019-05-20T01:21:11.324Z,23.55
2019-05-20T01:26:16.345Z,22.50
2019-05-20T01:31:21.157Z,22.87
2019-05-20T01:36:26.153Z,22.35
2019-05-20T01:41:44.082Z,20.82
2019-05-20T01:46:48.827Z,24.60
2019-05-20T01:51:53.619Z,22.13
2019-05-20T01:56:58.547Z,22.95
2019-05-20T02:02:04.500Z,22.60
2019-05-20T02:07:09.564Z,21.33
2019-05-20T02:12:14.288Z,25.00
2019-05-20T02:17:19.022Z,22.55
2019-05-20T02:22:36.670Z,24.45
2019-05-20T02:27:45.845Z,27.45
2019-05-20T02:32:56.486Z,23.57
2019-05-20T02:38:01.395Z,23.87
2019-05-20T02:43:06.623Z,23.32
2019-05-20T02:48:11.514Z,22.50
2019-05-20T02:53:16.498Z,21.05
2019-05-20T02:58:23.815Z,23.80
2019-05-20T03:03:28.577Z,22.87
2019-05-20T03:08:44.623Z,21.40
2019-05-20T03:13:50.556Z,21.05
2019-05-20T03:18:55.333Z,23.20
2019-05-20T03:24:00.642Z,21.40
2019-05-20T03:29:05.549Z,21.40
2019-05-20T03:34:38.838Z,21.45
2019-05-20T03:39:16.953Z,22.67
2019-05-20T03:44:21.815Z,25.65
2019-05-20T03:49:33.703Z,21.02
2019-05-20T03:54:45.661Z,20.27
2019-05-20T03:59:50.559Z,23.40
2019-05-20T04:05:02.129Z,22.52
2019-05-20T04:10:02.283Z,20.48
2019-05-20T04:15:07.629Z,20.70
2019-05-20T04:20:14.075Z,21.83
2019-05-20T04:25:19.373Z,19.48
2019-05-20T04:30:24.292Z,21.68
2019-05-20T04:35:30.443Z,24.95
2019-05-20T04:40:35.267Z,22.75
2019-05-20T04:45:41.777Z,27.17
2019-05-20T04:50:46.561Z,18.98
2019-05-20T04:55:52.017Z,23.55
2019-05-20T05:00:58.424Z,20.15
2019-05-20T05:06:04.867Z,20.75
2019-05-20T05:11:09.849Z,22.60
2019-05-20T05:16:14.687Z,24.67
2019-05-20T05:21:19.574Z,24.60
2019-05-20T05:26:24.661Z,23.83
2019-05-20T05:31:29.577Z,19.90
2019-05-20T05:36:48.522Z,21.05
2019-05-20T05:41:53.354Z,22.50
2019-05-20T05:46:58.258Z,20.62
2019-05-20T05:52:03.027Z,21.52
2019-05-20T05:57:12.577Z,20.77
2019-05-20T06:02:17.279Z,23.32
2019-05-20T06:07:22.155Z,18.85
2019-05-20T06:12:26.954Z,22.90
2019-05-20T06:17:31.679Z,26.48
2019-05-20T06:22:36.391Z,23.80
2019-05-20T06:27:41.313Z,21.15
2019-05-20T06:32:46.344Z,18.80
2019-05-20T06:37:54.623Z,17.27
2019-05-20T06:42:59.373Z,17.00
2019-05-20T06:48:04.594Z,19.00
2019-05-20T06:53:09.409Z,18.50
2019-05-20T06:58:16.492Z,22.48
2019-05-20T07:03:21.260Z,16.32
2019-05-20T07:08:26.241Z,18.25
2019-05-20T07:13:31.194Z,15.23
2019-05-20T07:18:36.064Z,16.48
2019-05-20T07:23:40.963Z,14.87
2019-05-20T07:28:45.827Z,16.80
2019-05-20T07:33:50.532Z,13.45
2019-05-20T07:38:57.331Z,14.38
2019-05-20T07:44:11.801Z,14.28
2019-05-20T07:49:16.799Z,15.30
2019-05-20T07:54:22.724Z,12.73
2019-05-20T07:59:30.336Z,14.13
2019-05-20T08:04:35.084Z,13.20
2019-05-20T08:09:45.824Z,12.47
2019-05-20T08:14:46.337Z,11.57
2019-05-20T08:19:51.137Z,9.00
2019-05-20T08:25:07.907Z,10.35
2019-05-20T08:30:14.203Z,8.50
2019-05-20T08:35:19.427Z,11.97
2019-05-20T08:40:24.164Z,11.08
2019-05-20T08:45:29.085Z,9.13
2019-05-20T08:50:33.912Z,9.58
2019-05-20T08:55:38.965Z,10.58
2019-05-20T09:00:43.655Z,8.93
2019-05-20T09:05:48.444Z,6.80
2019-05-20T09:10:53.285Z,8.05
2019-05-20T09:15:58.020Z,6.95
2019-05-20T09:21:02.934Z,7.28
2019-05-20T09:26:15.917Z,6.72
2019-05-20T09:31:20.768Z,6.73
2019-05-20T09:36:26.063Z,6.70
2019-05-20T09:41:31.171Z,8.38
2019-05-20T09:46:36.033Z,6.22
2019-05-20T09:51:40.971Z,6.92
2019-05-20T09:56:45.806Z,7.87
2019-05-20T10:01:50.847Z,8.80
2019-05-20T10:06:55.791Z,7.22
2019-05-20T10:12:00.585Z,6.78
2019-05-20T10:17:17.578Z,6.75
2019-05-20T10:22:25.050Z,5.40
2019-05-20T10:27:32.159Z,6.47
2019-05-20T10:32:37.251Z,7.60
2019-05-20T10:37:42.136Z,5.72
2019-05-20T10:42:46.935Z,9.25
2019-05-20T10:47:51.863Z,5.85
2019-05-20T10:52:56.665Z,6.47
2019-05-20T10:58:07.432Z,6.10
2019-05-20T11:03:12.395Z,7.55
2019-05-20T11:08:23.594Z,9.88
2019-05-20T11:13:28.971Z,6.12
2019-05-20T11:18:33.853Z,7.20
2019-05-20T11:23:38.725Z,6.15
2019-05-20T11:28:43.545Z,6.75
2019-05-20T11:33:48.329Z,5.17
2019-05-20T11:38:53.220Z,7.00
2019-05-20T11:43:58.893Z,8.35
2019-05-20T11:49:04.979Z,6.78
2019-05-20T11:54:10.663Z,5.83
2019-05-20T11:59:15.472Z,8.55
2019-05-20T12:04:20.264Z,8.18
2019-05-20T12:09:25.327Z,5.95
2019-05-20T12:14:30.066Z,6.47
2019-05-20T12:19:35.159Z,7.83
2019-05-20T12:24:44.730Z,7.08
2019-05-20T12:29:49.494Z,5.72
2019-05-20T12:35:03.098Z,6.33
2019-05-20T12:40:08.904Z,7.58
2019-05-20T12:45:14.294Z,7.67
2019-05-20T12:50:19.315Z,10.53
2019-05-20T12:55:24.140Z,11.55
2019-05-20T13:00:28.994Z,6.78
2019-05-20T13:05:33.948Z,8.93
2019-05-20T13:10:42.093Z,7.30
2019-05-20T13:15:46.895Z,11.90
2019-05-20T13:20:51.689Z,7.55
2019-05-20T13:25:56.606Z,7.67
2019-05-20T13:31:01.669Z,8.78
2019-05-20T13:36:06.543Z,8.98
2019-05-20T13:41:11.445Z,8.60
2019-05-20T13:46:16.224Z,12.43
2019-05-20T13:51:21.288Z,10.50
2019-05-20T13:56:26.111Z,8.38
2019-05-20T14:01:30.935Z,9.75
2019-05-20T14:06:35.879Z,7.95
2019-05-20T14:11:43.739Z,11.80
2019-05-20T14:16:48.571Z,11.50
2019-05-20T14:21:53.395Z,12.78
2019-05-20T14:26:58.155Z,14.28
2019-05-20T14:32:03.326Z,15.37
2019-05-20T14:37:08.235Z,12.70
2019-05-20T14:42:14.011Z,14.50
2019-05-20T14:47:18.857Z,16.25
2019-05-20T14:52:23.578Z,19.10
2019-05-20T14:57:28.425Z,18.27
2019-05-20T15:02:33.215Z,19.00
2019-05-20T15:07:38.141Z,21.70
2019-05-20T15:12:42.897Z,22.45
2019-05-20T15:17:47.677Z,27.62
2019-05-20T15:22:52.641Z,23.92
2019-05-20T15:27:57.471Z,26.20
2019-05-20T15:33:02.214Z,33.78
2019-05-20T15:38:07.013Z,15.80
2019-05-20T15:43:11.796Z,14.93
2019-05-20T15:48:16.612Z,12.98
2019-05-20T15:53:21.384Z,11.50
2019-05-20T15:58:26.172Z,9.20
2019-05-20T16:03:30.964Z,7.67
2019-05-20T16:08:35.677Z,9.18
2019-05-20T16:13:40.476Z,8.80
2019-05-20T16:18:47.670Z,10.55
2019-05-20T16:23:52.384Z,9.43
2019-05-20T16:28:57.138Z,10.43
2019-05-20T16:34:01.876Z,11.10
2019-05-20T16:39:07.565Z,11.08
2019-05-20T16:44:12.377Z,11.53
2019-05-20T16:49:17.123Z,12.30
2019-05-20T16:54:21.912Z,13.15
2019-05-20T16:59:26.760Z,16.35
2019-05-20T17:04:31.613Z,14.98
2019-05-20T17:09:36.506Z,17.65
2019-05-20T17:14:41.213Z,18.50
2019-05-20T17:19:46.047Z,19.77
2019-05-20T17:24:51.940Z,20.05
2019-05-20T17:29:56.851Z,22.43
2019-05-20T17:35:01.698Z,19.37
2019-05-20T17:40:06.994Z,19.85
2019-05-20T17:45:14.091Z,18.03
2019-05-20T17:50:19.303Z,17.82
2019-05-20T17:55:24.479Z,21.95
2019-05-20T18:00:29.609Z,21.80
2019-05-20T18:05:34.548Z,16.50
2019-05-20T18:10:39.321Z,19.60
2019-05-20T18:15:44.141Z,19.85
2019-05-20T18:20:48.913Z,28.23
2019-05-20T18:25:53.619Z,29.95
2019-05-20T18:30:58.423Z,26.02
2019-05-20T18:36:03.472Z,22.58
2019-05-20T18:41:08.197Z,21.02
2019-05-20T18:46:12.958Z,14.77
2019-05-20T18:51:17.663Z,15.87
2019-05-20T18:56:22.528Z,17.90
2019-05-20T19:01:27.251Z,19.17
2019-05-20T19:06:32.243Z,24.82
2019-05-20T19:11:37.247Z,19.65
2019-05-20T19:16:42.834Z,19.90
2019-05-20T19:21:47.646Z,20.68
2019-05-20T19:26:52.521Z,19.73
2019-05-20T19:32:01.915Z,18.37
2019-05-20T19:37:04.803Z,17.05
2019-05-20T19:42:10.091Z,15.27
2019-05-20T19:47:14.913Z,14.13
2019-05-20T19:52:19.948Z,15.07
2019-05-20T19:57:24.812Z,18.80
2019-05-20T20:02:29.608Z,16.07
2019-05-20T20:07:34.799Z,13.98
2019-05-20T20:12:39.568Z,17.12
2019-05-20T20:17:44.424Z,13.43
2019-05-20T20:22:49.230Z,14.13
2019-05-20T20:27:55.542Z,13.58
2019-05-20T20:33:00.240Z,13.08
2019-05-20T20:38:05.092Z,15.40
2019-05-20T20:43:09.806Z,14.78
2019-05-20T20:48:16.056Z,13.37
2019-05-20T20:53:20.845Z,16.75
2019-05-20T20:58:25.645Z,15.23
2019-05-20T21:03:30.456Z,19.45
2019-05-20T21:08:35.422Z,13.95
2019-05-20T21:13:40.250Z,15.55
2019-05-20T21:18:45.120Z,13.70
2019-05-20T21:23:49.875Z,16.00
2019-05-20T21:28:54.656Z,16.52
2019-05-20T21:33:59.730Z,14.30
2019-05-20T21:39:06.012Z,13.90
2019-05-20T21:44:10.694Z,12.93
2019-05-20T21:49:15.395Z,13.72
2019-05-20T21:54:20.096Z,13.18
2019-05-20T21:59:24.830Z,14.65
2019-05-20T22:04:29.666Z,14.07
2019-05-20T22:09:34.426Z,13.60
2019-05-20T22:14:39.258Z,12.53
2019-05-20T22:19:44.247Z,17.27
2019-05-20T22:24:49.590Z,11.68
2019-05-20T22:29:54.397Z,13.65
2019-05-20T22:34:59.224Z,12.85
2019-05-20T22:40:05.727Z,12.37
2019-05-20T22:45:10.981Z,12.37
2019-05-20T22:50:15.776Z,13.33
2019-05-20T22:55:20.514Z,13.63
2019-05-20T23:00:25.349Z,12.30
2019-05-20T23:05:30.154Z,11.75
2019-05-20T23:10:35.000Z,15.72
2019-05-20T23:15:39.937Z,14.38
2019-05-20T23:20:44.792Z,15.98
2019-05-20T23:25:52.727Z,15.20
2019-05-20T23:30:56.449Z,15.58
2019-05-20T23:36:01.304Z,17.52
2019-05-20T23:41:06.158Z,15.55
2019-05-20T23:46:11.071Z,12.97
2019-05-20T23:51:15.915Z,14.77
2019-05-20T23:56:20.731Z,13.97
